createdAt,value
2019-05-09T00:01:18.946Z,8.27
2019-05-09T00:03:49.077Z,8.30
2019-05-09T00:06:19.220Z,8.35
2019-05-09T00:08:49.321Z,8.37
2019-05-09T00:11:19.448Z,8.39
2019-05-09T00:13:51.021Z,8.38
2019-05-09T00:16:23.331Z,8.40
2019-05-09T00:18:54.036Z,8.40
2019-05-09T00:21:33.280Z,8.45
2019-05-09T00:24:03.727Z,8.50
2019-05-09T00:26:35.006Z,8.48
2019-05-09T00:29:09.760Z,8.51
2019-05-09T00:32:05.344Z,8.58
2019-05-09T00:34:44.158Z,8.62
2019-05-09T00:37:14.373Z,8.64
2019-05-09T00:39:44.490Z,8.65
2019-05-09T00:42:14.617Z,8.68
2019-05-09T00:44:47.771Z,8.69
2019-05-09T00:47:25.209Z,8.68
2019-05-09T00:49:55.468Z,8.74
2019-05-09T00:52:25.606Z,8.73
2019-05-09T00:54:55.774Z,8.64
2019-05-09T00:57:35.131Z,8.63
2019-05-09T01:00:14.555Z,8.62
2019-05-09T01:02:44.689Z,8.49
2019-05-09T01:05:14.898Z,8.49
2019-05-09T01:07:45.048Z,8.40
2019-05-09T01:10:15.578Z,8.42
2019-05-09T01:12:45.732Z,8.41
2019-05-09T01:15:16.449Z,8.43
2019-05-09T01:17:46.587Z,8.40
2019-05-09T01:20:17.110Z,8.35
2019-05-09T01:22:47.302Z,8.33
2019-05-09T01:25:17.428Z,8.36
2019-05-09T01:27:47.561Z,8.33
2019-05-09T01:30:18.392Z,8.29
2019-05-09T01:33:07.492Z,8.27
2019-05-09T01:35:37.590Z,8.18
2019-05-09T01:38:07.736Z,8.10
2019-05-09T01:40:37.854Z,8.13
2019-05-09T01:43:09.667Z,8.13
2019-05-09T01:45:39.808Z,8.14
2019-05-09T01:48:09.992Z,7.49
2019-05-09T01:50:40.102Z,8.13
2019-05-09T01:53:13.363Z,8.16
2019-05-09T01:56:09.154Z,8.19
2019-05-09T01:58:39.285Z,8.16
2019-05-09T02:01:10.434Z,8.14
2019-05-09T02:03:40.678Z,8.22
2019-05-09T02:06:13.651Z,8.19
2019-05-09T02:08:43.908Z,8.25
2019-05-09T02:11:14.175Z,8.19
2019-05-09T02:13:44.407Z,8.17
2019-05-09T02:16:33.814Z,8.17
2019-05-09T02:19:30.347Z,8.14
2019-05-09T02:22:00.463Z,8.25
2019-05-09T02:24:30.592Z,8.21
2019-05-09T02:27:00.712Z,8.18
2019-05-09T02:29:30.834Z,8.23
2019-05-09T02:32:04.238Z,8.32
2019-05-09T02:34:35.604Z,8.27
2019-05-09T02:37:04.664Z,8.36
2019-05-09T02:39:34.807Z,8.39
2019-05-09T02:42:12.668Z,8.34
2019-05-09T02:44:39.515Z,8.34
2019-05-09T02:47:14.427Z,8.36
2019-05-09T02:49:44.548Z,8.34
2019-05-09T02:52:14.741Z,8.43
2019-05-09T02:54:44.885Z,8.38
2019-05-09T02:57:18.222Z,8.33
2019-05-09T03:00:19.807Z,8.34
2019-05-09T03:03:08.927Z,8.42
2019-05-09T03:05:38.453Z,8.34
2019-05-09T03:08:09.814Z,8.38
2019-05-09T03:10:40.135Z,8.40
2019-05-09T03:13:10.274Z,8.38
2019-05-09T03:15:41.320Z,8.30
2019-05-09T03:18:11.606Z,8.34
2019-05-09T03:21:08.888Z,8.44
2019-05-09T03:23:39.077Z,8.52
2019-05-09T03:26:11.070Z,8.47
2019-05-09T03:29:08.817Z,8.46
2019-05-09T03:31:39.586Z,8.49
2019-05-09T03:34:10.862Z,8.57
2019-05-09T03:36:41.006Z,8.57
2019-05-09T03:39:11.144Z,8.54
2019-05-09T03:41:41.392Z,8.59
2019-05-09T03:44:11.515Z,8.63
2019-05-09T03:47:08.366Z,8.55
2019-05-09T03:49:38.699Z,8.63
2019-05-09T03:52:08.849Z,8.64
2019-05-09T03:54:38.979Z,8.60
2019-05-09T03:57:17.979Z,8.68
2019-05-09T03:59:48.249Z,8.63
2019-05-09T04:02:18.534Z,8.76
2019-05-09T04:04:48.663Z,8.78
2019-05-09T04:07:18.844Z,8.80
2019-05-09T04:09:48.926Z,8.77
2019-05-09T04:12:19.063Z,8.70
2019-05-09T04:14:49.169Z,8.72
2019-05-09T04:17:19.702Z,8.74
2019-05-09T04:19:49.818Z,8.71
2019-05-09T04:22:20.000Z,8.72
2019-05-09T04:24:50.209Z,8.80
2019-05-09T04:27:24.966Z,8.82
2019-05-09T04:29:57.355Z,8.82
2019-05-09T04:32:27.404Z,8.84
2019-05-09T04:34:57.876Z,8.87
2019-05-09T04:37:30.944Z,8.85
2019-05-09T04:40:03.259Z,8.90
2019-05-09T04:42:35.040Z,8.92
2019-05-09T04:45:20.411Z,8.88
2019-05-09T04:47:50.637Z,8.95
2019-05-09T04:50:24.864Z,8.97
2019-05-09T04:52:52.765Z,8.97
2019-05-09T04:55:24.779Z,9.01
2019-05-09T04:57:54.912Z,9.03
2019-05-09T05:00:32.313Z,9.06
2019-05-09T05:03:02.655Z,9.11
2019-05-09T05:05:32.787Z,9.14
2019-05-09T05:08:03.253Z,9.12
2019-05-09T05:10:33.500Z,9.17
2019-05-09T05:13:04.679Z,9.20
2019-05-09T05:15:34.804Z,9.27
2019-05-09T05:18:04.947Z,9.36
2019-05-09T05:20:35.166Z,9.43
2019-05-09T05:23:18.301Z,9.49
2019-05-09T05:25:48.420Z,9.57
2019-05-09T05:28:18.705Z,9.60
2019-05-09T05:30:48.935Z,9.57
2019-05-09T05:33:30.866Z,9.68
2019-05-09T05:36:03.337Z,9.62
2019-05-09T05:38:34.539Z,9.67
2019-05-09T05:41:04.671Z,9.51
2019-05-09T05:43:43.446Z,9.48
2019-05-09T05:46:15.303Z,9.48
2019-05-09T05:48:48.527Z,9.44
2019-05-09T05:51:18.494Z,9.49
2019-05-09T05:53:49.767Z,9.59
2019-05-09T05:56:19.892Z,9.62
2019-05-09T05:58:50.045Z,9.73
2019-05-09T06:01:20.183Z,9.73
2019-05-09T06:03:50.325Z,9.77
2019-05-09T06:06:20.456Z,9.67
2019-05-09T06:08:50.690Z,9.75
2019-05-09T06:11:20.845Z,9.80
2019-05-09T06:13:56.468Z,9.92
2019-05-09T06:16:23.099Z,9.83
2019-05-09T06:18:53.242Z,9.78
2019-05-09T06:21:23.369Z,9.77
2019-05-09T06:23:53.508Z,9.75
2019-05-09T06:26:23.624Z,9.72
2019-05-09T06:28:53.751Z,9.78
2019-05-09T06:31:23.871Z,9.77
2019-05-09T06:33:54.012Z,9.81
2019-05-09T06:36:24.129Z,9.86
2019-05-09T06:38:54.268Z,9.92
2019-05-09T06:41:24.374Z,9.92
2019-05-09T06:44:13.242Z,9.95
2019-05-09T06:46:48.268Z,9.95
2019-05-09T06:49:28.334Z,9.94
2019-05-09T06:51:54.962Z,10.01
2019-05-09T06:54:25.092Z,10.02
2019-05-09T06:56:55.218Z,10.03
2019-05-09T06:59:25.352Z,10.05
2019-05-09T07:02:08.330Z,10.11
2019-05-09T07:04:58.172Z,10.20
2019-05-09T07:07:53.591Z,10.19
2019-05-09T07:10:23.867Z,10.24
2019-05-09T07:12:54.010Z,10.38
2019-05-09T07:15:24.201Z,10.36
2019-05-09T07:17:54.347Z,10.44
2019-05-09T07:20:24.483Z,10.44
2019-05-09T07:22:58.067Z,10.51
2019-05-09T07:25:58.918Z,10.55
2019-05-09T07:28:29.047Z,10.62
2019-05-09T07:31:07.688Z,10.65
2019-05-09T07:33:51.227Z,10.71
2019-05-09T07:36:21.376Z,10.66
2019-05-09T07:38:51.510Z,10.71
2019-05-09T07:41:21.641Z,10.74
2019-05-09T07:43:51.769Z,10.79
2019-05-09T07:46:32.278Z,10.82
2019-05-09T07:49:08.842Z,10.89
2019-05-09T07:51:39.100Z,10.95
2019-05-09T07:54:20.662Z,11.03
2019-05-09T07:56:41.091Z,11.04
2019-05-09T07:59:11.247Z,11.05
2019-05-09T08:01:41.450Z,11.10
2019-05-09T08:04:11.556Z,11.19
2019-05-09T08:06:41.680Z,11.18
2019-05-09T08:09:11.807Z,11.13
2019-05-09T08:11:42.079Z,11.11
2019-05-09T08:14:12.189Z,11.08
2019-05-09T08:16:42.316Z,11.03
2019-05-09T08:19:12.427Z,11.15
2019-05-09T08:21:42.564Z,11.17
2019-05-09T08:24:12.693Z,11.25
2019-05-09T08:26:42.829Z,11.28
2019-05-09T08:29:12.953Z,11.25
2019-05-09T08:31:45.467Z,11.34
2019-05-09T08:34:14.937Z,11.36
2019-05-09T08:36:45.068Z,11.56
2019-05-09T08:39:15.199Z,11.45
2019-05-09T08:41:45.369Z,11.46
2019-05-09T08:44:17.986Z,11.59
2019-05-09T08:46:48.150Z,11.72
2019-05-09T08:49:22.334Z,11.76
2019-05-09T08:52:10.371Z,11.81
2019-05-09T08:54:52.983Z,11.78
2019-05-09T08:57:23.127Z,11.85
2019-05-09T08:59:53.275Z,11.94
2019-05-09T09:02:23.392Z,11.90
2019-05-09T09:04:53.513Z,11.94
2019-05-09T09:07:23.645Z,11.97
2019-05-09T09:09:53.775Z,11.96
2019-05-09T09:12:32.979Z,12.04
2019-05-09T09:14:55.734Z,12.03
2019-05-09T09:17:27.936Z,11.99
2019-05-09T09:19:58.426Z,12.00
2019-05-09T09:22:28.756Z,12.07
2019-05-09T09:24:58.905Z,12.05
2019-05-09T09:27:30.814Z,12.10
2019-05-09T09:30:16.767Z,12.13
2019-05-09T09:32:32.946Z,12.08
2019-05-09T09:35:03.071Z,12.25
2019-05-09T09:37:47.704Z,12.33
2019-05-09T09:40:08.628Z,12.34
2019-05-09T09:42:39.662Z,12.40
2019-05-09T09:45:10.788Z,12.46
2019-05-09T09:47:40.988Z,12.52
2019-05-09T09:50:11.277Z,12.50
2019-05-09T09:52:42.196Z,12.54
2019-05-09T09:55:14.001Z,12.39
2019-05-09T09:57:44.136Z,12.71
2019-05-09T10:00:32.933Z,12.78
2019-05-09T10:03:03.151Z,12.84
2019-05-09T10:05:33.282Z,12.85
2019-05-09T10:08:03.477Z,12.90
2019-05-09T10:10:36.342Z,12.98
2019-05-09T10:13:10.495Z,13.04
2019-05-09T10:15:54.747Z,13.10
2019-05-09T10:18:40.151Z,13.11
2019-05-09T10:21:14.036Z,13.17
2019-05-09T10:23:44.165Z,13.13
2019-05-09T10:26:14.279Z,13.04
2019-05-09T10:28:45.525Z,12.90
2019-05-09T10:31:15.759Z,12.93
2019-05-09T10:33:48.017Z,12.89
2019-05-09T10:36:17.705Z,12.93
2019-05-09T10:38:48.014Z,12.91
2019-05-09T10:41:18.362Z,12.85
2019-05-09T10:44:22.691Z,12.95
2019-05-09T10:47:01.912Z,12.88
2019-05-09T10:49:29.442Z,12.75
2019-05-09T10:51:59.568Z,12.85
2019-05-09T10:54:29.734Z,12.81
2019-05-09T10:56:59.936Z,12.82
2019-05-09T10:59:31.146Z,12.83
2019-05-09T11:02:01.282Z,12.79
2019-05-09T11:04:31.434Z,12.74
2019-05-09T11:07:01.568Z,12.67
2019-05-09T11:09:31.720Z,12.52
2019-05-09T11:12:01.823Z,12.48
2019-05-09T11:14:37.280Z,12.38
2019-05-09T11:17:10.972Z,12.23
2019-05-09T11:19:35.633Z,11.79
2019-05-09T11:22:08.039Z,12.07
2019-05-09T11:24:45.898Z,11.96
2019-05-09T11:27:09.401Z,12.05
2019-05-09T11:29:39.530Z,12.05
2019-05-09T11:32:10.669Z,12.03
2019-05-09T11:34:40.804Z,12.10
2019-05-09T11:37:10.940Z,12.12
2019-05-09T11:39:42.258Z,12.03
2019-05-09T11:42:12.600Z,12.04
2019-05-09T11:44:42.811Z,12.01
2019-05-09T11:47:28.461Z,12.05
2019-05-09T11:49:44.785Z,12.02
2019-05-09T11:52:14.924Z,12.14
2019-05-09T11:54:45.474Z,12.16
2019-05-09T11:57:15.629Z,12.23
2019-05-09T11:59:47.958Z,12.23
2019-05-09T12:02:18.215Z,12.18
2019-05-09T12:04:48.864Z,12.22
2019-05-09T12:07:19.088Z,12.24
2019-05-09T12:09:49.227Z,12.30
2019-05-09T12:12:20.344Z,12.36
2019-05-09T12:14:50.609Z,12.35
2019-05-09T12:17:20.739Z,12.31
2019-05-09T12:19:50.906Z,12.35
2019-05-09T12:22:21.021Z,12.40
2019-05-09T12:24:53.966Z,12.37
2019-05-09T12:27:23.086Z,12.35
2019-05-09T12:29:53.208Z,12.39
2019-05-09T12:32:23.383Z,12.41
2019-05-09T12:34:57.732Z,12.49
2019-05-09T12:37:28.274Z,12.53
2019-05-09T12:39:59.213Z,12.56
2019-05-09T12:42:30.985Z,12.57
2019-05-09T12:45:01.189Z,12.54
2019-05-09T12:47:31.330Z,12.51
2019-05-09T12:50:02.956Z,12.57
2019-05-09T12:52:33.307Z,12.57
2019-05-09T12:55:03.459Z,12.62
2019-05-09T12:57:33.650Z,12.64
2019-05-09T13:00:04.066Z,12.66
2019-05-09T13:02:34.234Z,12.58
2019-05-09T13:05:07.893Z,12.57
2019-05-09T13:07:40.037Z,12.63
2019-05-09T13:10:09.514Z,12.78
2019-05-09T13:12:39.643Z,12.89
2019-05-09T13:15:10.243Z,12.93
2019-05-09T13:17:42.478Z,12.91
2019-05-09T13:20:17.921Z,12.93
2019-05-09T13:22:48.145Z,12.97
2019-05-09T13:25:19.081Z,12.95
2019-05-09T13:27:52.982Z,12.98
2019-05-09T13:30:22.359Z,12.97
2019-05-09T13:32:52.509Z,12.99
2019-05-09T13:35:22.659Z,13.02
2019-05-09T13:37:52.876Z,12.95
2019-05-09T13:40:24.147Z,13.05
2019-05-09T13:42:54.377Z,13.04
2019-05-09T13:45:24.633Z,13.00
2019-05-09T13:47:54.786Z,12.97
2019-05-09T13:50:24.948Z,13.05
2019-05-09T13:52:55.089Z,12.95
2019-05-09T13:55:27.442Z,12.91
2019-05-09T13:57:59.235Z,12.88
2019-05-09T14:00:29.138Z,12.85
2019-05-09T14:02:59.457Z,12.79
2019-05-09T14:05:29.609Z,12.75
2019-05-09T14:08:03.208Z,12.70
2019-05-09T14:10:31.647Z,12.61
2019-05-09T14:13:09.355Z,12.52
2019-05-09T14:15:33.682Z,12.59
2019-05-09T14:18:03.964Z,12.51
2019-05-09T14:20:34.128Z,12.43
2019-05-09T14:23:04.630Z,12.39
2019-05-09T14:25:34.778Z,12.45
2019-05-09T14:28:04.918Z,12.41
2019-05-09T14:30:35.051Z,12.42
2019-05-09T14:33:08.024Z,12.32
2019-05-09T14:35:38.729Z,12.25
2019-05-09T14:38:09.070Z,12.24
2019-05-09T14:40:39.256Z,12.21
2019-05-09T14:43:09.826Z,12.24
2019-05-09T14:45:42.781Z,12.16
2019-05-09T14:48:13.309Z,12.11
2019-05-09T14:50:45.448Z,12.03
2019-05-09T14:53:18.070Z,12.02
2019-05-09T14:55:47.805Z,11.99
2019-05-09T14:58:18.001Z,11.86
2019-05-09T15:00:49.333Z,11.87
2019-05-09T15:03:19.523Z,11.34
2019-05-09T15:05:49.720Z,11.86
2019-05-09T15:08:20.187Z,11.84
2019-05-09T15:10:50.910Z,11.82
2019-05-09T15:13:21.060Z,11.79
2019-05-09T15:15:51.233Z,11.80
2019-05-09T15:18:21.391Z,11.72
2019-05-09T15:20:51.557Z,11.65
2019-05-09T15:23:21.724Z,11.67
2019-05-09T15:25:51.968Z,11.78
2019-05-09T15:28:22.182Z,11.82
2019-05-09T15:30:52.395Z,11.73
2019-05-09T15:33:22.559Z,11.77
2019-05-09T15:35:52.721Z,11.78
2019-05-09T15:38:23.108Z,11.79
2019-05-09T15:40:53.241Z,11.78
2019-05-09T15:43:23.492Z,11.78
2019-05-09T15:46:08.339Z,11.75
2019-05-09T15:48:38.699Z,11.79
2019-05-09T15:51:08.859Z,11.75
2019-05-09T15:53:38.987Z,11.74
2019-05-09T15:56:09.154Z,11.75
2019-05-09T15:58:39.371Z,11.70
2019-05-09T16:01:09.537Z,11.65
2019-05-09T16:03:39.900Z,11.61
2019-05-09T16:06:10.026Z,11.64
2019-05-09T16:08:40.166Z,11.65
2019-05-09T16:11:10.321Z,11.53
2019-05-09T16:13:40.465Z,11.57
2019-05-09T16:16:10.609Z,11.51
2019-05-09T16:18:42.940Z,11.45
2019-05-09T16:21:14.375Z,11.52
2019-05-09T16:23:44.505Z,11.46
2019-05-09T16:26:14.843Z,11.53
2019-05-09T16:28:45.079Z,11.46
2019-05-09T16:31:15.229Z,11.34
2019-05-09T16:33:47.579Z,11.37
2019-05-09T16:36:17.679Z,11.30
2019-05-09T16:38:49.140Z,11.21
2019-05-09T16:41:19.364Z,11.20
2019-05-09T16:43:49.517Z,11.17
2019-05-09T16:46:19.731Z,11.02
2019-05-09T16:48:49.935Z,10.93
2019-05-09T16:51:20.084Z,10.96
2019-05-09T16:53:50.212Z,11.00
2019-05-09T16:56:20.419Z,11.02
2019-05-09T16:58:50.551Z,11.11
2019-05-09T17:01:20.714Z,11.16
2019-05-09T17:03:50.905Z,11.30
2019-05-09T17:06:21.163Z,11.29
2019-05-09T17:08:51.287Z,11.15
2019-05-09T17:11:21.479Z,11.16
2019-05-09T17:13:53.308Z,11.12
2019-05-09T17:16:23.499Z,11.20
2019-05-09T17:18:53.655Z,11.12
2019-05-09T17:21:42.926Z,11.16
2019-05-09T17:24:15.780Z,11.25
2019-05-09T17:26:48.695Z,11.23
2019-05-09T17:29:18.518Z,11.20
2019-05-09T17:31:49.056Z,11.16
2019-05-09T17:34:19.222Z,11.16
2019-05-09T17:36:49.353Z,11.24
2019-05-09T17:39:19.564Z,11.22
2019-05-09T17:41:49.780Z,11.33
2019-05-09T17:44:19.912Z,11.37
2019-05-09T17:46:50.085Z,11.35
2019-05-09T17:49:20.843Z,11.29
2019-05-09T17:51:51.014Z,11.22
2019-05-09T17:54:21.195Z,11.24
2019-05-09T17:56:51.512Z,11.28
2019-05-09T17:59:21.683Z,11.30
2019-05-09T18:01:51.870Z,11.28
2019-05-09T18:04:22.048Z,11.23
2019-05-09T18:06:52.195Z,11.17
2019-05-09T18:09:22.448Z,11.12
2019-05-09T18:11:52.650Z,11.08
2019-05-09T18:14:22.937Z,11.00
2019-05-09T18:16:53.198Z,10.89
2019-05-09T18:19:23.352Z,10.87
2019-05-09T18:21:53.544Z,10.82
2019-05-09T18:24:23.720Z,10.77
2019-05-09T18:26:53.875Z,10.74
2019-05-09T18:29:24.074Z,10.60
2019-05-09T18:32:13.216Z,10.62
2019-05-09T18:34:43.350Z,10.63
2019-05-09T18:37:13.495Z,10.48
2019-05-09T18:39:43.645Z,10.50
2019-05-09T18:42:13.847Z,10.44
2019-05-09T18:44:44.014Z,10.35
2019-05-09T18:47:15.227Z,10.26
2019-05-09T18:49:45.462Z,10.22
2019-05-09T18:52:15.646Z,10.16
2019-05-09T18:54:45.787Z,10.21
2019-05-09T18:57:16.663Z,9.76
2019-05-09T18:59:46.792Z,10.22
2019-05-09T19:02:16.942Z,10.17
2019-05-09T19:04:47.127Z,10.15
2019-05-09T19:07:22.512Z,10.18
2019-05-09T19:09:49.305Z,10.15
2019-05-09T19:12:19.477Z,10.14
2019-05-09T19:14:49.732Z,10.11
2019-05-09T19:17:37.750Z,10.06
2019-05-09T19:20:26.730Z,10.08
2019-05-09T19:22:57.093Z,10.15
2019-05-09T19:25:27.379Z,10.13
2019-05-09T19:27:57.673Z,10.20
2019-05-09T19:30:27.839Z,10.24
2019-05-09T19:32:58.016Z,10.25
2019-05-09T19:35:28.235Z,10.44
2019-05-09T19:37:58.469Z,10.44
2019-05-09T19:40:28.717Z,10.49
2019-05-09T19:42:59.486Z,10.55
2019-05-09T19:45:30.881Z,10.48
2019-05-09T19:48:01.262Z,10.57
2019-05-09T19:50:31.520Z,10.72
2019-05-09T19:53:01.936Z,10.76
2019-05-09T19:55:32.138Z,10.72
2019-05-09T19:58:03.500Z,10.76
2019-05-09T20:00:33.672Z,10.78
2019-05-09T20:03:04.242Z,10.80
2019-05-09T20:05:36.223Z,10.80
2019-05-09T20:08:07.624Z,10.78
2019-05-09T20:10:55.674Z,10.78
2019-05-09T20:13:37.903Z,10.76
2019-05-09T20:16:09.177Z,10.73
2019-05-09T20:18:40.053Z,10.74
2019-05-09T20:21:10.276Z,10.72
2019-05-09T20:23:40.386Z,10.62
2019-05-09T20:26:10.538Z,10.50
2019-05-09T20:28:40.659Z,10.49
2019-05-09T20:31:10.792Z,10.52
2019-05-09T20:33:41.026Z,10.47
2019-05-09T20:36:11.190Z,10.34
2019-05-09T20:38:41.483Z,10.44
2019-05-09T20:41:11.825Z,10.32
2019-05-09T20:43:42.164Z,10.30
2019-05-09T20:46:12.577Z,10.33
2019-05-09T20:48:43.465Z,10.25
2019-05-09T20:51:13.791Z,10.21
2019-05-09T20:53:44.131Z,10.13
2019-05-09T20:56:15.441Z,10.12
2019-05-09T20:58:45.988Z,10.13
2019-05-09T21:01:16.295Z,10.22
2019-05-09T21:03:59.808Z,10.27
2019-05-09T21:06:18.757Z,10.25
2019-05-09T21:08:49.100Z,10.35
2019-05-09T21:11:19.446Z,10.36
2019-05-09T21:13:49.833Z,10.34
2019-05-09T21:16:20.175Z,10.31
2019-05-09T21:18:50.499Z,10.33
2019-05-09T21:21:20.832Z,10.41
2019-05-09T21:23:51.220Z,10.47
2019-05-09T21:26:21.535Z,10.53
2019-05-09T21:28:51.854Z,10.41
2019-05-09T21:31:22.177Z,10.21
2019-05-09T21:33:52.505Z,10.19
2019-05-09T21:36:22.632Z,10.25
2019-05-09T21:38:52.793Z,10.35
2019-05-09T21:41:22.930Z,10.26
2019-05-09T21:43:53.066Z,10.27
2019-05-09T21:46:23.215Z,10.08
2019-05-09T21:48:53.369Z,9.83
2019-05-09T21:51:23.475Z,9.74
2019-05-09T21:53:53.674Z,9.79
2019-05-09T21:56:23.784Z,9.73
2019-05-09T21:58:53.907Z,9.79
2019-05-09T22:01:24.153Z,9.80
2019-05-09T22:03:54.486Z,9.82
2019-05-09T22:06:24.675Z,9.98
2019-05-09T22:08:54.817Z,10.08
2019-05-09T22:11:24.974Z,10.14
2019-05-09T22:13:55.114Z,10.19
2019-05-09T22:16:25.375Z,10.14
2019-05-09T22:18:55.499Z,10.18
2019-05-09T22:21:25.647Z,10.04
2019-05-09T22:23:57.181Z,10.01
2019-05-09T22:26:28.462Z,9.63
2019-05-09T22:28:58.602Z,9.63
2019-05-09T22:31:28.723Z,9.71
2019-05-09T22:33:58.876Z,9.73
2019-05-09T22:36:29.012Z,9.60
2019-05-09T22:39:00.216Z,9.52
2019-05-09T22:41:30.350Z,9.52
2019-05-09T22:44:00.507Z,9.49
2019-05-09T22:46:30.659Z,9.67
2019-05-09T22:49:00.799Z,9.74
2019-05-09T22:51:30.929Z,9.78
2019-05-09T22:54:12.436Z,9.87
2019-05-09T22:56:32.942Z,9.93
2019-05-09T22:59:03.063Z,9.85
2019-05-09T23:01:34.255Z,9.86
2019-05-09T23:04:04.498Z,9.94
2019-05-09T23:06:34.775Z,9.96
2019-05-09T23:09:06.504Z,9.94
2019-05-09T23:11:36.628Z,9.96
2019-05-09T23:14:06.983Z,9.97
2019-05-09T23:16:39.379Z,10.00
2019-05-09T23:19:09.569Z,10.01
2019-05-09T23:21:40.756Z,10.02
2019-05-09T23:24:27.501Z,9.96
2019-05-09T23:26:45.162Z,9.89
2019-05-09T23:29:15.378Z,9.83
2019-05-09T23:31:51.013Z,9.83
2019-05-09T23:34:21.169Z,9.84
2019-05-09T23:36:51.313Z,9.86
2019-05-09T23:39:29.468Z,9.88
2019-05-09T23:41:59.594Z,9.92
2019-05-09T23:44:29.870Z,9.91
2019-05-09T23:47:00.048Z,10.02
2019-05-09T23:49:30.196Z,10.01
2019-05-09T23:52:00.329Z,10.06
2019-05-09T23:54:48.461Z,10.08
2019-05-09T23:57:36.784Z,10.10
